Time;durP1;ratioP1;P1;durP2;ratioP2;P2;SDS_P1;SDS_P2;PMS_P1;PMS_P2;Temp;Humidity;BMP_temperature;BMP_pressure;BME280_temperature;BME280_humidity;BME280_pressure;Samples;Min_cycle;Max_cycle;Signal;HPM_P1;HPM_P2
2021/11/18 00:00:36;;;;;;;0.20;0.20;;;7.50;99.90;;;;;;5014712;28;20181;-66
2021/11/18 00:03:03;;;;;;;0.63;0.45;;;7.50;99.90;;;;;;5020457;28;20702;-65
2021/11/18 00:05:31;;;;;;;0.93;0.93;;;7.50;99.90;;;;;;5003156;28;20188;-65
2021/11/18 00:07:57;;;;;;;0.20;0.20;;;7.50;99.90;;;;;;5020169;28;20216;-65
2021/11/18 00:10:29;;;;;;;0.30;0.20;;;7.50;99.90;;;;;;5020219;28;20241;-65
2021/11/18 00:12:57;;;;;;;0.20;0.20;;;7.50;99.90;;;;;;5003340;28;20174;-66
2021/11/18 00:15:26;;;;;;;0.30;0.20;;;7.40;99.90;;;;;;5020875;28;20240;-66
2021/11/18 00:17:55;;;;;;;0.47;0.47;;;7.40;99.90;;;;;;5020867;28;20182;-65
2021/11/18 00:20:21;;;;;;;0.20;0.20;;;7.40;99.90;;;;;;5021496;28;20255;-66
2021/11/18 00:22:46;;;;;;;0.20;0.20;;;7.30;99.90;;;;;;5020608;28;20237;-66
2021/11/18 00:25:13;;;;;;;3.23;0.40;;;7.40;99.90;;;;;;5023205;28;20193;-65
2021/11/18 00:27:39;;;;;;;0.50;0.50;;;7.40;99.90;;;;;;5022296;28;20182;-66
2021/11/18 00:30:08;;;;;;;0.20;0.20;;;7.30;99.90;;;;;;5004308;28;20220;-67
2021/11/18 00:32:35;;;;;;;1.15;1.05;;;7.40;99.90;;;;;;5004524;28;20179;-65
2021/11/18 00:35:03;;;;;;;0.20;0.20;;;7.40;99.90;;;;;;5021800;28;20215;-65
2021/11/18 00:37:28;;;;;;;0.32;0.20;;;7.50;99.90;;;;;;5004610;28;20208;-65
2021/11/18 00:39:54;;;;;;;0.20;0.20;;;7.50;99.90;;;;;;5022217;28;20265;-65
2021/11/18 00:42:19;;;;;;;0.20;0.20;;;7.70;99.90;;;;;;5022407;28;20201;-65
2021/11/18 00:44:45;;;;;;;1.90;1.40;;;7.60;99.90;;;;;;5022499;28;20173;-65
2021/11/18 00:47:10;;;;;;;0.20;0.20;;;7.50;99.90;;;;;;5023221;28;20193;-65
2021/11/18 00:49:36;;;;;;;26.33;1.43;;;7.40;99.90;;;;;;5020238;28;20212;-66
2021/11/18 00:52:02;;;;;;;0.23;0.23;;;7.30;99.90;;;;;;5019934;28;20182;-66
2021/11/18 00:54:27;;;;;;;0.20;0.20;;;7.30;99.90;;;;;;5019986;28;20205;-66
2021/11/18 00:56:53;;;;;;;0.30;0.20;;;7.20;99.90;;;;;;5019814;28;20445;-66
2021/11/18 00:59:18;;;;;;;0.30;0.20;;;7.20;99.90;;;;;;5020103;28;20189;-66
2021/11/18 01:01:45;;;;;;;0.20;0.20;;;7.10;99.90;;;;;;5019852;28;20561;-66
2021/11/18 01:04:19;;;;;;;1.05;0.38;;;7.10;99.90;;;;;;5019896;28;20174;-66
2021/11/18 01:06:45;;;;;;;0.73;0.32;;;7.10;99.90;;;;;;5019742;28;20264;-66
2021/11/18 01:09:11;;;;;;;0.30;0.20;;;7.00;99.90;;;;;;5019520;28;20201;-66
2021/11/18 01:11:37;;;;;;;0.20;0.20;;;7.00;99.90;;;;;;5019598;28;20175;-66
2021/11/18 01:14:05;;;;;;;0.30;0.20;;;7.00;99.90;;;;;;5015943;28;20192;-67
2021/11/18 01:16:33;;;;;;;0.43;0.30;;;6.90;99.90;;;;;;5016905;28;20433;-66
2021/11/18 01:18:59;;;;;;;0.20;0.20;;;6.90;99.90;;;;;;5016409;28;20619;-66
2021/11/18 01:21:25;;;;;;;0.20;0.10;;;6.80;99.90;;;;;;5016458;28;20198;-65
2021/11/18 01:23:52;;;;;;;0.40;0.40;;;6.90;99.90;;;;;;5016451;28;20519;-65
2021/11/18 01:26:20;;;;;;;2.25;1.15;;;6.90;99.90;;;;;;5016503;28;20259;-65
2021/11/18 01:28:47;;;;;;;0.32;0.32;;;6.80;99.90;;;;;;5016415;28;20206;-65
2021/11/18 01:31:13;;;;;;;0.38;0.38;;;6.70;99.90;;;;;;4999053;28;20178;-65
2021/11/18 01:33:40;;;;;;;1.15;0.98;;;6.70;99.90;;;;;;5016242;28;20186;-65
2021/11/18 01:36:06;;;;;;;0.20;0.10;;;6.80;99.90;;;;;;5016151;28;20179;-65
2021/11/18 01:38:33;;;;;;;0.67;0.50;;;6.80;99.90;;;;;;5016175;28;20178;-65
2021/11/18 01:41:05;;;;;;;0.50;0.50;;;6.80;99.90;;;;;;5016356;28;20421;-66
2021/11/18 01:43:35;;;;;;;0.20;0.10;;;6.80;99.90;;;;;;5016305;28;20182;-65
2021/11/18 01:46:02;;;;;;;0.85;0.70;;;6.80;99.90;;;;;;5016081;28;20221;-65
2021/11/18 01:48:28;;;;;;;0.30;0.20;;;6.80;99.90;;;;;;4998506;28;20354;-65
2021/11/18 01:50:54;;;;;;;0.30;0.20;;;6.80;99.90;;;;;;5015932;28;20561;-65
2021/11/18 01:53:28;;;;;;;0.20;0.20;;;6.80;99.90;;;;;;4998698;28;20508;-66
2021/11/18 01:55:54;;;;;;;0.20;0.20;;;6.80;99.90;;;;;;5016210;28;20194;-65
2021/11/18 01:58:21;;;;;;;1.33;0.67;;;6.80;99.90;;;;;;5015812;28;20572;-66
2021/11/18 02:00:53;;;;;;;0.20;0.20;;;6.80;99.90;;;;;;5016256;28;20170;-66
2021/11/18 02:03:19;;;;;;;0.20;0.20;;;6.80;99.90;;;;;;5015603;28;20651;-66
2021/11/18 02:05:54;;;;;;;2.67;0.70;;;6.80;99.90;;;;;;5015707;28;20504;-66
2021/11/18 02:08:21;;;;;;;0.20;0.20;;;6.80;99.90;;;;;;5015305;28;20178;-65
2021/11/18 02:10:50;;;;;;;0.68;0.68;;;6.80;99.90;;;;;;5015830;28;20189;-65
2021/11/18 02:13:18;;;;;;;0.75;0.73;;;6.80;99.90;;;;;;5015468;28;20182;-65
2021/11/18 02:15:50;;;;;;;0.20;0.20;;;6.80;99.90;;;;;;5015450;28;20333;-65
2021/11/18 02:18:20;;;;;;;0.20;0.20;;;6.90;99.90;;;;;;5015072;28;20174;-66
2021/11/18 02:20:48;;;;;;;0.30;0.30;;;6.90;99.90;;;;;;5015512;28;20265;-66
2021/11/18 02:23:20;;;;;;;0.20;0.20;;;6.90;99.90;;;;;;4998005;28;20182;-65
2021/11/18 02:25:49;;;;;;;0.20;0.20;;;7.00;99.90;;;;;;5014439;28;20178;-65
2021/11/18 02:28:15;;;;;;;0.20;0.20;;;7.00;99.90;;;;;;5014768;28;20190;-66
2021/11/18 02:30:42;;;;;;;0.20;0.20;;;6.90;99.90;;;;;;5015306;28;20178;-66
2021/11/18 02:33:08;;;;;;;0.20;0.20;;;7.00;99.90;;;;;;5015127;28;20920;-66
2021/11/18 02:35:36;;;;;;;0.20;0.20;;;7.10;99.90;;;;;;5015252;28;20181;-65
2021/11/18 02:38:03;;;;;;;0.70;0.68;;;7.10;99.90;;;;;;5014806;28;20610;-65
2021/11/18 02:40:29;;;;;;;0.20;0.17;;;7.10;99.90;;;;;;5014997;28;20194;-65
2021/11/18 02:42:57;;;;;;;0.20;0.20;;;7.10;99.90;;;;;;5014909;28;20208;-65
2021/11/18 02:45:26;;;;;;;0.20;0.20;;;7.20;99.90;;;;;;5015065;28;20944;-66
2021/11/18 02:47:54;;;;;;;2.08;0.63;;;7.20;99.90;;;;;;5014785;28;20217;-65
2021/11/18 02:50:23;;;;;;;0.30;0.30;;;7.20;99.90;;;;;;5014827;28;20279;-65
2021/11/18 02:52:49;;;;;;;0.40;0.40;;;7.20;99.90;;;;;;5014924;28;20193;-66
2021/11/18 02:55:19;;;;;;;0.20;0.20;;;7.20;99.90;;;;;;5014696;28;20194;-65
2021/11/18 02:57:46;;;;;;;1.35;0.90;;;7.30;99.90;;;;;;4997404;28;20429;-66
2021/11/18 03:00:28;;;;;;;0.50;0.50;;;7.30;99.90;;;;;;5014708;28;20186;-65
2021/11/18 03:02:55;;;;;;;0.52;0.50;;;7.20;99.90;;;;;;5015116;28;20182;-65
2021/11/18 03:05:21;;;;;;;1.67;1.58;;;7.20;99.90;;;;;;5014885;28;20244;-66
2021/11/18 03:07:48;;;;;;;0.20;0.20;;;7.20;99.90;;;;;;5014534;28;20193;-66
2021/11/18 03:10:15;;;;;;;0.75;0.75;;;7.30;99.90;;;;;;5014184;28;20218;-66
2021/11/18 03:12:41;;;;;;;0.30;0.20;;;7.30;99.90;;;;;;5014457;28;20213;-66
2021/11/18 03:15:08;;;;;;;5.83;1.40;;;7.40;99.90;;;;;;5015024;28;20209;-65
2021/11/18 03:17:34;;;;;;;1.15;1.10;;;7.30;99.90;;;;;;5014317;28;20240;-66
2021/11/18 03:20:00;;;;;;;3.30;1.20;;;7.40;99.90;;;;;;5014255;28;20221;-65
2021/11/18 03:22:25;;;;;;;1.23;1.13;;;7.40;99.90;;;;;;5014210;28;20433;-66
2021/11/18 03:24:51;;;;;;;0.20;0.10;;;7.50;99.90;;;;;;5014567;28;20674;-65
2021/11/18 03:27:16;;;;;;;0.63;0.63;;;7.50;99.90;;;;;;5014343;28;20174;-66
2021/11/18 03:29:42;;;;;;;1.43;1.33;;;7.60;99.90;;;;;;5014147;28;20224;-64
2021/11/18 03:32:08;;;;;;;1.27;0.63;;;7.60;99.90;;;;;;5014017;28;20241;-64
2021/11/18 03:34:35;;;;;;;0.20;0.20;;;7.60;99.90;;;;;;5014226;28;20176;-64
2021/11/18 03:37:02;;;;;;;2.15;1.27;;;7.70;99.90;;;;;;5013527;28;20428;-64
2021/11/18 03:39:28;;;;;;;1.58;0.73;;;7.80;99.90;;;;;;5013825;28;20196;-64
2021/11/18 03:41:59;;;;;;;1.45;0.65;;;7.80;99.90;;;;;;5013996;28;20248;-64
2021/11/18 03:44:26;;;;;;;39.50;2.85;;;7.80;99.90;;;;;;5014103;28;20185;-64
2021/11/18 03:47:04;;;;;;;0.20;0.20;;;7.80;99.90;;;;;;5013918;28;20194;-64
2021/11/18 03:49:29;;;;;;;0.20;0.20;;;7.90;99.90;;;;;;5013581;28;20228;-64
2021/11/18 03:51:58;;;;;;;0.30;0.30;;;8.00;99.90;;;;;;5013967;28;20610;-64
2021/11/18 03:54:26;;;;;;;0.73;0.73;;;8.00;99.90;;;;;;5013949;28;20192;-64
2021/11/18 03:56:52;;;;;;;0.30;0.30;;;8.10;99.90;;;;;;5013883;28;20260;-65
2021/11/18 03:59:28;;;;;;;0.30;0.30;;;8.10;99.90;;;;;;5013663;28;20615;-64
2021/11/18 04:01:55;;;;;;;4.53;0.47;;;8.00;99.90;;;;;;5013817;28;20918;-66
2021/11/18 04:04:37;;;;;;;0.60;0.60;;;8.00;99.90;;;;;;5013782;28;20587;-65
2021/11/18 04:07:03;;;;;;;0.20;0.20;;;8.10;99.90;;;;;;5013760;28;20615;-65
2021/11/18 04:09:29;;;;;;;0.20;0.10;;;8.10;99.90;;;;;;5013453;28;20213;-66
2021/11/18 04:11:59;;;;;;;0.30;0.20;;;8.20;99.90;;;;;;5013760;28;20451;-64
2021/11/18 04:14:26;;;;;;;0.80;0.43;;;8.10;99.90;;;;;;4996199;28;20185;-64
2021/11/18 04:16:52;;;;;;;7.05;1.17;;;8.10;99.90;;;;;;5013692;28;20187;-64
2021/11/18 04:19:17;;;;;;;2.67;1.17;;;8.00;99.90;;;;;;5013240;28;20175;-64
2021/11/18 04:21:44;;;;;;;0.20;0.20;;;8.10;99.90;;;;;;4996316;28;20425;-65
2021/11/18 04:24:14;;;;;;;0.65;0.65;;;8.10;99.90;;;;;;5013529;28;20554;-65
2021/11/18 04:26:41;;;;;;;1.05;0.95;;;8.20;99.90;;;;;;4996259;28;20596;-65
2021/11/18 04:29:07;;;;;;;1.38;1.23;;;8.20;99.90;;;;;;4995837;28;20595;-65
2021/11/18 04:31:32;;;;;;;0.55;0.55;;;8.20;99.90;;;;;;5013626;28;20189;-65
2021/11/18 04:33:59;;;;;;;2.83;2.63;;;8.20;99.90;;;;;;5013443;28;20170;-65
2021/11/18 04:36:26;;;;;;;0.60;0.60;;;8.10;99.90;;;;;;5013435;28;20269;-66
2021/11/18 04:38:53;;;;;;;0.75;0.75;;;8.20;99.90;;;;;;4995881;28;20270;-66
2021/11/18 04:41:21;;;;;;;0.20;0.20;;;8.10;99.90;;;;;;4996132;28;20178;-65
2021/11/18 04:43:47;;;;;;;0.20;0.20;;;8.10;99.90;;;;;;5013250;28;20474;-65
2021/11/18 04:46:14;;;;;;;2.50;1.00;;;8.10;99.90;;;;;;4995879;28;20204;-66
2021/11/18 04:48:41;;;;;;;0.20;0.20;;;8.10;99.90;;;;;;5015396;28;20209;-67
2021/11/18 04:51:09;;;;;;;0.20;0.10;;;8.00;99.90;;;;;;5017039;28;20174;-65
2021/11/18 04:53:36;;;;;;;0.28;0.22;;;8.10;99.90;;;;;;5016925;28;20559;-66
2021/11/18 04:56:04;;;;;;;0.30;0.30;;;8.10;99.90;;;;;;4999594;28;20206;-66
2021/11/18 04:58:30;;;;;;;0.52;0.40;;;8.00;99.90;;;;;;5016546;28;20178;-65
2021/11/18 05:00:57;;;;;;;0.40;0.40;;;8.00;99.90;;;;;;5015933;28;20282;-66
2021/11/18 05:03:24;;;;;;;0.73;0.73;;;8.00;99.90;;;;;;5016943;28;20247;-66
2021/11/18 05:05:50;;;;;;;0.68;0.43;;;8.00;99.90;;;;;;4999664;28;20275;-66
2021/11/18 05:08:17;;;;;;;0.40;0.30;;;8.00;99.90;;;;;;5016571;28;20261;-66
2021/11/18 05:10:45;;;;;;;0.40;0.30;;;8.00;99.90;;;;;;5017081;28;20178;-66
2021/11/18 05:13:11;;;;;;;2.05;0.40;;;8.10;99.90;;;;;;5016697;28;20475;-66
2021/11/18 05:15:40;;;;;;;1.60;1.50;;;8.10;99.90;;;;;;5016652;28;20246;-66
2021/11/18 05:18:07;;;;;;;1.25;1.15;;;8.00;99.90;;;;;;5016274;28;20185;-67
2021/11/18 05:20:33;;;;;;;0.20;0.20;;;8.00;99.90;;;;;;5016641;28;20196;-66
2021/11/18 05:22:59;;;;;;;0.63;0.63;;;8.00;99.90;;;;;;5016438;28;20174;-67
2021/11/18 05:25:27;;;;;;;0.93;0.93;;;8.10;99.90;;;;;;5016613;28;20184;-68
2021/11/18 05:27:53;;;;;;;0.20;0.10;;;8.10;99.90;;;;;;4999141;28;20178;-67
2021/11/18 05:30:22;;;;;;;0.40;0.40;;;8.10;99.90;;;;;;5016390;28;20212;-67
2021/11/18 05:32:47;;;;;;;0.20;0.10;;;8.20;99.90;;;;;;5016491;28;20257;-67
2021/11/18 05:35:13;;;;;;;0.40;0.40;;;8.20;99.90;;;;;;5016328;28;20260;-67
2021/11/18 05:37:39;;;;;;;0.47;0.47;;;8.20;99.90;;;;;;5016308;28;20174;-66
2021/11/18 05:40:08;;;;;;;0.30;0.30;;;8.20;99.90;;;;;;5015894;28;20509;-64
2021/11/18 05:42:34;;;;;;;1.25;1.13;;;8.30;99.90;;;;;;4998858;28;20182;-67
2021/11/18 05:45:01;;;;;;;7.43;1.10;;;8.20;99.90;;;;;;5016005;28;20181;-65
2021/11/18 05:47:27;;;;;;;1.95;1.13;;;8.20;99.90;;;;;;5016462;28;20182;-65
2021/11/18 05:49:52;;;;;;;0.20;0.20;;;8.30;99.90;;;;;;5015409;28;20220;-65
2021/11/18 05:52:18;;;;;;;0.70;0.70;;;8.40;99.90;;;;;;5016113;28;20604;-65
2021/11/18 05:54:44;;;;;;;0.30;0.20;;;8.30;99.90;;;;;;5015836;28;20182;-65
2021/11/18 05:57:09;;;;;;;0.93;0.93;;;8.40;99.90;;;;;;4998407;28;20460;-66
2021/11/18 05:59:35;;;;;;;0.30;0.30;;;8.40;99.90;;;;;;5015261;28;20190;-65
2021/11/18 06:02:01;;;;;;;0.20;0.20;;;8.50;99.90;;;;;;5015414;28;20185;-65
2021/11/18 06:04:27;;;;;;;0.27;0.20;;;8.60;99.90;;;;;;5015676;28;20748;-65
2021/11/18 06:06:53;;;;;;;1.48;0.47;;;8.60;99.90;;;;;;5015632;28;20260;-67
2021/11/18 06:09:19;;;;;;;0.20;0.20;;;8.60;99.90;;;;;;4997902;28;20305;-65
2021/11/18 06:11:44;;;;;;;0.63;0.63;;;8.60;99.90;;;;;;5015556;28;20206;-66
2021/11/18 06:14:11;;;;;;;2.70;0.67;;;8.70;99.90;;;;;;4998287;28;20626;-66
2021/11/18 06:16:38;;;;;;;0.52;0.52;;;8.70;99.90;;;;;;5015515;28;20564;-66
2021/11/18 06:19:05;;;;;;;0.68;0.68;;;8.70;99.90;;;;;;5015096;28;20178;-66
2021/11/18 06:21:33;;;;;;;0.30;0.20;;;8.70;99.90;;;;;;5015414;28;20186;-66
2021/11/18 06:24:00;;;;;;;2.15;0.73;;;8.70;99.90;;;;;;5015427;28;20183;-65
2021/11/18 06:26:27;;;;;;;8.13;2.15;;;8.70;99.90;;;;;;5015555;28;20190;-66
2021/11/18 06:28:55;;;;;;;0.55;0.50;;;8.80;99.90;;;;;;5014892;28;20259;-66
2021/11/18 06:31:21;;;;;;;0.63;0.63;;;8.90;99.90;;;;;;5015386;28;20257;-66
2021/11/18 06:33:47;;;;;;;0.20;0.10;;;8.90;99.90;;;;;;5015893;28;20721;-65
2021/11/18 06:36:13;;;;;;;0.30;0.30;;;8.80;99.90;;;;;;5017008;28;20193;-65
2021/11/18 06:38:42;;;;;;;0.20;0.20;;;8.80;99.90;;;;;;4998144;28;20194;-66
2021/11/18 06:41:08;;;;;;;0.55;0.55;;;8.80;99.90;;;;;;5014817;28;20186;-65
2021/11/18 06:43:34;;;;;;;0.98;0.98;;;8.70;99.90;;;;;;5014735;28;20193;-66
2021/11/18 06:46:00;;;;;;;0.32;0.32;;;8.80;99.90;;;;;;5014645;28;20193;-65
2021/11/18 06:48:30;;;;;;;0.30;0.30;;;8.80;99.90;;;;;;5014529;28;20185;-65
2021/11/18 06:51:08;;;;;;;0.63;0.63;;;8.80;99.90;;;;;;4997515;28;20177;-66
2021/11/18 06:53:35;;;;;;;0.20;0.20;;;8.80;99.90;;;;;;5014346;28;20173;-65
2021/11/18 06:56:01;;;;;;;1.85;1.38;;;8.70;99.90;;;;;;5014342;28;20194;-66
2021/11/18 06:58:27;;;;;;;0.38;0.38;;;8.90;99.90;;;;;;5014161;28;20613;-65
2021/11/18 07:00:53;;;;;;;0.50;0.50;;;8.90;99.90;;;;;;5013708;28;20209;-65
2021/11/18 07:03:19;;;;;;;0.30;0.20;;;9.00;99.90;;;;;;5014058;28;20347;-66
2021/11/18 07:05:45;;;;;;;1.30;0.80;;;9.00;99.90;;;;;;5014145;28;20633;-66
2021/11/18 07:08:10;;;;;;;0.35;0.35;;;9.10;99.90;;;;;;5014141;28;20182;-66
2021/11/18 07:10:39;;;;;;;0.30;0.30;;;9.00;99.90;;;;;;5013502;28;20220;-65
2021/11/18 07:13:06;;;;;;;0.80;0.80;;;9.00;99.90;;;;;;4996601;28;20180;-65
2021/11/18 07:15:31;;;;;;;12.80;1.17;;;9.00;99.90;;;;;;5014164;28;20193;-65
2021/11/18 07:17:59;;;;;;;11.53;2.33;;;9.00;99.90;;;;;;4996621;28;20177;-65
2021/11/18 07:20:25;;;;;;;1.05;1.00;;;8.90;99.90;;;;;;5013878;28;20200;-65
2021/11/18 07:22:52;;;;;;;4.10;1.95;;;9.00;99.90;;;;;;5014252;28;20189;-65
2021/11/18 07:25:21;;;;;;;0.65;0.65;;;9.00;99.90;;;;;;5013975;28;20216;-65
2021/11/18 07:27:48;;;;;;;2.20;1.77;;;9.00;99.90;;;;;;5014165;28;20280;-66
2021/11/18 07:30:15;;;;;;;5.97;1.67;;;9.10;99.90;;;;;;4996604;28;20232;-65
2021/11/18 07:32:42;;;;;;;0.47;0.47;;;9.10;99.90;;;;;;5014241;28;20178;-63
2021/11/18 07:35:09;;;;;;;6.35;2.60;;;9.20;99.90;;;;;;5014459;28;20607;-66
2021/11/18 07:37:35;;;;;;;4.22;2.75;;;9.10;99.90;;;;;;5013995;28;20244;-64
2021/11/18 07:40:02;;;;;;;1.13;1.13;;;9.00;99.90;;;;;;5013330;28;20189;-66
2021/11/18 07:42:27;;;;;;;2.03;1.75;;;9.00;99.90;;;;;;5013473;28;20440;-65
2021/11/18 07:44:53;;;;;;;0.20;0.20;;;9.20;99.90;;;;;;5014033;28;20177;-66
2021/11/18 07:47:18;;;;;;;1.50;0.67;;;9.20;99.90;;;;;;5013854;28;20182;-66
2021/11/18 07:49:44;;;;;;;1.30;1.20;;;9.20;99.90;;;;;;5013409;28;20216;-65
2021/11/18 07:52:09;;;;;;;1.93;1.20;;;9.20;99.90;;;;;;5013798;28;20188;-66
2021/11/18 07:54:35;;;;;;;0.77;0.67;;;9.20;99.90;;;;;;5013680;28;20192;-65
2021/11/18 07:57:01;;;;;;;0.73;0.73;;;9.20;99.90;;;;;;5013700;28;20216;-65
2021/11/18 07:59:27;;;;;;;1.17;0.77;;;9.30;99.90;;;;;;5013480;28;20244;-65
2021/11/18 08:01:54;;;;;;;0.50;0.50;;;9.40;99.90;;;;;;5013651;28;20641;-65
2021/11/18 08:04:20;;;;;;;0.93;0.93;;;9.40;99.90;;;;;;5013809;28;20205;-65
2021/11/18 08:06:47;;;;;;;0.30;0.30;;;9.40;99.90;;;;;;5013699;28;20499;-65
2021/11/18 08:09:12;;;;;;;0.55;0.55;;;9.40;99.90;;;;;;5013307;28;20605;-65
2021/11/18 08:11:47;;;;;;;1.80;1.70;;;9.50;99.90;;;;;;5013798;28;20174;-65
2021/11/18 08:14:14;;;;;;;1.00;0.95;;;9.50;99.90;;;;;;5012245;28;20707;-64
2021/11/18 08:16:41;;;;;;;0.68;0.68;;;9.50;99.90;;;;;;5018037;28;20212;-63
2021/11/18 08:19:07;;;;;;;1.20;1.10;;;9.40;99.90;;;;;;5013712;28;20232;-63
2021/11/18 08:21:34;;;;;;;0.87;0.73;;;9.40;99.90;;;;;;5014491;28;20189;-64
2021/11/18 08:24:01;;;;;;;0.40;0.40;;;9.50;99.90;;;;;;5017658;28;20197;-64
2021/11/18 08:26:28;;;;;;;0.50;0.50;;;9.60;99.90;;;;;;5017380;28;20189;-64
2021/11/18 08:28:54;;;;;;;0.73;0.68;;;9.50;99.90;;;;;;5020839;28;20212;-64
2021/11/18 08:31:20;;;;;;;1.00;0.40;;;9.50;99.90;;;;;;5019745;28;20185;-64
2021/11/18 08:33:46;;;;;;;6.72;3.58;;;9.60;99.90;;;;;;5020201;28;20185;-64
2021/11/18 08:36:11;;;;;;;5.97;2.57;;;9.50;99.90;;;;;;5016860;28;20190;-64
2021/11/18 08:38:37;;;;;;;2.40;2.20;;;9.60;99.90;;;;;;5000710;28;20245;-64
2021/11/18 08:41:06;;;;;;;1.33;1.13;;;9.60;99.90;;;;;;4983174;28;20186;-64
2021/11/18 08:43:34;;;;;;;1.10;1.00;;;9.70;99.90;;;;;;4998921;28;20178;-64
2021/11/18 08:46:03;;;;;;;1.70;1.55;;;9.70;99.90;;;;;;4998836;28;20236;-64
2021/11/18 08:48:29;;;;;;;1.55;1.30;;;9.80;99.90;;;;;;5003182;28;20197;-65
2021/11/18 08:50:55;;;;;;;1.17;1.07;;;9.80;99.90;;;;;;5017387;28;20186;-65
2021/11/18 08:53:23;;;;;;;0.30;0.20;;;9.70;99.90;;;;;;5013823;28;20430;-65
2021/11/18 08:55:50;;;;;;;1.05;0.75;;;9.90;99.90;;;;;;4979967;28;20535;-65
2021/11/18 08:58:19;;;;;;;3.33;3.13;;;10.00;99.90;;;;;;4997091;28;20198;-65
2021/11/18 09:00:54;;;;;;;0.95;0.65;;;10.00;99.90;;;;;;4997141;28;20528;-65
2021/11/18 09:03:22;;;;;;;1.02;0.60;;;10.00;99.90;;;;;;4997131;28;20265;-65
2021/11/18 09:05:49;;;;;;;0.60;0.60;;;9.90;99.90;;;;;;4996866;28;20221;-65
2021/11/18 09:08:15;;;;;;;1.17;1.10;;;9.90;99.90;;;;;;4996662;28;20187;-65
2021/11/18 09:10:42;;;;;;;1.52;0.93;;;10.00;99.90;;;;;;4996680;28;20221;-65
2021/11/18 09:13:09;;;;;;;1.17;1.13;;;9.90;99.90;;;;;;4996656;28;20186;-65
2021/11/18 09:15:36;;;;;;;0.82;0.60;;;9.90;99.90;;;;;;4996939;28;20269;-65
2021/11/18 09:18:04;;;;;;;4.15;1.33;;;10.00;99.90;;;;;;4996494;28;20646;-65
2021/11/18 09:20:30;;;;;;;0.98;0.77;;;10.00;99.90;;;;;;4996824;28;20247;-65
2021/11/18 09:23:00;;;;;;;4.78;3.47;;;10.00;99.90;;;;;;5004033;28;20205;-65
2021/11/18 09:25:47;;;;;;;2.67;1.63;;;10.00;99.90;;;;;;5016694;28;20178;-67
2021/11/18 09:28:14;;;;;;;2.83;1.95;;;9.90;99.90;;;;;;5016290;28;20684;-67
2021/11/18 09:30:47;;;;;;;3.22;2.45;;;9.90;99.90;;;;;;5016137;28;20205;-66
2021/11/18 09:33:13;;;;;;;0.57;0.57;;;9.80;99.90;;;;;;5015480;28;20611;-66
2021/11/18 09:35:45;;;;;;;1.92;1.02;;;9.90;99.90;;;;;;5016141;28;20185;-66
2021/11/18 09:38:12;;;;;;;6.88;3.70;;;10.00;99.90;;;;;;5015645;28;20178;-67
2021/11/18 09:40:45;;;;;;;0.82;0.82;;;10.20;99.90;;;;;;5016139;28;20718;-66
2021/11/18 09:43:29;;;;;;;3.35;2.03;;;10.30;99.90;;;;;;5015776;28;20213;-66
2021/11/18 09:46:39;;;;;;;7.00;2.60;;;10.30;99.90;;;;;;4984024;28;20186;-67
2021/11/18 09:49:26;;;;;;;1.75;1.65;;;10.20;99.90;;;;;;4995926;28;20219;-66
2021/11/18 09:52:15;;;;;;;1.42;1.33;;;10.30;99.90;;;;;;4996871;28;20179;-66
2021/11/18 09:55:08;;;;;;;2.38;2.17;;;10.40;99.90;;;;;;4996116;28;20215;-66
2021/11/18 09:57:46;;;;;;;3.03;2.83;;;10.40;99.90;;;;;;4995966;28;20215;-66
2021/11/18 10:00:45;;;;;;;1.10;1.00;;;10.30;99.90;;;;;;4996096;28;20182;-67
2021/11/18 10:03:49;;;;;;;0.93;0.93;;;10.30;99.90;;;;;;4978441;28;20194;-66
2021/11/18 10:06:29;;;;;;;4.90;3.92;;;10.40;99.90;;;;;;4996483;28;20201;-66
2021/11/18 10:09:23;;;;;;;2.70;2.22;;;10.30;99.90;;;;;;4995965;28;20548;-66
2021/11/18 10:11:51;;;;;;;7.93;3.97;;;10.30;99.90;;;;;;4996449;28;20511;-66
2021/11/18 10:14:38;;;;;;;0.75;0.75;;;10.20;99.90;;;;;;4995959;28;20195;-66
2021/11/18 10:17:23;;;;;;;3.05;1.95;;;10.20;99.90;;;;;;4996495;28;20179;-66
2021/11/18 10:19:54;;;;;;;1.25;1.17;;;10.20;99.90;;;;;;4995886;28;20266;-67
2021/11/18 10:22:22;;;;;;;2.38;2.28;;;10.30;99.90;;;;;;4999095;28;20432;-67
2021/11/18 10:24:51;;;;;;;1.23;1.13;;;10.40;99.90;;;;;;5015465;28;20187;-67
2021/11/18 10:27:44;;;;;;;4.63;1.90;;;10.50;99.90;;;;;;5015935;28;20189;-67
2021/11/18 10:30:32;;;;;;;1.67;1.30;;;10.60;99.90;;;;;;4997658;28;20210;-66
2021/11/18 10:33:12;;;;;;;0.95;0.95;;;10.60;99.90;;;;;;5014924;28;20630;-67
2021/11/18 10:36:11;;;;;;;4.10;0.47;;;10.80;99.90;;;;;;5014936;28;20257;-68
2021/11/18 10:38:49;;;;;;;1.85;1.75;;;10.80;99.90;;;;;;5014653;28;20178;-68
2021/11/18 10:41:28;;;;;;;1.15;1.08;;;10.90;99.90;;;;;;4998101;28;20182;-66
2021/11/18 10:44:16;;;;;;;1.50;1.40;;;10.80;99.90;;;;;;5014481;28;20170;-66
2021/11/18 10:46:50;;;;;;;0.65;0.57;;;10.80;99.90;;;;;;4994665;28;20185;-68
2021/11/18 10:49:27;;;;;;;4.03;2.35;;;10.70;99.90;;;;;;4994641;28;20214;-67
2021/11/18 10:51:58;;;;;;;1.90;1.80;;;10.70;99.90;;;;;;4995077;28;20201;-66
2021/11/18 10:54:50;;;;;;;0.40;0.40;;;10.80;99.90;;;;;;4995150;28;20182;-66
2021/11/18 10:57:21;;;;;;;0.60;0.60;;;11.00;99.90;;;;;;4995021;28;20195;-67
2021/11/18 10:59:53;;;;;;;1.52;1.25;;;11.10;99.90;;;;;;4994429;28;20287;-66
2021/11/18 11:02:24;;;;;;;2.47;2.38;;;11.10;99.90;;;;;;4994865;28;20195;-66
2021/11/18 11:04:56;;;;;;;0.63;0.63;;;11.10;99.90;;;;;;4977674;28;20191;-67
2021/11/18 11:07:32;;;;;;;0.50;0.35;;;11.10;99.90;;;;;;4994954;28;20178;-67
2021/11/18 11:09:58;;;;;;;3.78;2.55;;;11.30;99.90;;;;;;4994403;28;20202;-67
2021/11/18 11:12:34;;;;;;;1.37;0.60;;;11.30;99.90;;;;;;4994827;28;20647;-66
2021/11/18 11:15:20;;;;;;;5.78;1.65;;;11.30;99.90;;;;;;4994521;28;20174;-66
2021/11/18 11:18:18;;;;;;;1.85;1.48;;;11.20;99.90;;;;;;4994630;28;20258;-66
2021/11/18 11:20:54;;;;;;;1.48;0.95;;;11.20;99.90;;;;;;4994359;28;20187;-66
2021/11/18 11:23:49;;;;;;;2.80;2.60;;;11.20;99.90;;;;;;4988087;28;20516;-66
2021/11/18 11:26:55;;;;;;;3.15;2.95;;;11.30;99.90;;;;;;5014432;28;20567;-67
2021/11/18 11:29:35;;;;;;;0.80;0.52;;;11.70;99.90;;;;;;5014274;28;20205;-68
2021/11/18 11:32:23;;;;;;;0.30;0.20;;;11.70;13.20;;;;;;5014250;28;20174;-67
2021/11/18 11:34:57;;;;;;;0.30;0.28;;;11.60;30.00;;;;;;5013774;28;20174;-67
2021/11/18 11:38:01;;;;;;;0.30;0.30;;;11.50;44.30;;;;;;5013690;28;20267;-67
2021/11/18 11:40:57;;;;;;;0.93;0.93;;;11.50;59.60;;;;;;4998764;28;20506;-67
2021/11/18 11:43:33;;;;;;;0.65;0.65;;;11.60;92.70;;;;;;5013847;28;20178;-67
2021/11/18 11:46:18;;;;;;;3.25;1.63;;;11.80;38.30;;;;;;4998279;28;20205;-67
2021/11/18 11:49:26;;;;;;;1.63;1.27;;;11.70;7.00;;;;;;4993925;28;20646;-67
2021/11/18 11:52:11;;;;;;;2.67;1.55;;;11.50;11.70;;;;;;4993930;28;20561;-66
2021/11/18 11:55:01;;;;;;;0.30;0.20;;;11.40;41.70;;;;;;4993982;28;20178;-67
2021/11/18 11:57:46;;;;;;;0.30;0.25;;;11.50;91.10;;;;;;4994461;28;20662;-67
2021/11/18 12:00:38;;;;;;;0.40;0.40;;;11.40;98.60;;;;;;5013210;28;20534;-67
2021/11/18 12:03:44;;;;;;;2.28;1.75;;;11.40;99.90;;;;;;4985505;28;20654;-67
2021/11/18 12:06:26;;;;;;;7.88;2.25;;;11.50;99.90;;;;;;5013300;28;20183;-67
2021/11/18 12:08:57;;;;;;;0.63;0.63;;;11.40;99.90;;;;;;4995534;28;20208;-68
2021/11/18 12:11:35;;;;;;;2.17;1.98;;;11.50;99.90;;;;;;5013655;28;20182;-68
2021/11/18 12:14:47;;;;;;;8.60;4.47;;;11.30;99.90;;;;;;5013686;28;20189;-67
2021/11/18 12:17:35;;;;;;;0.30;0.28;;;11.10;99.90;;;;;;4980383;28;20225;-67
2021/11/18 12:20:07;;;;;;;1.35;1.25;;;11.10;99.90;;;;;;5013287;28;20188;-68
2021/11/18 12:22:38;;;;;;;3.97;1.60;;;11.10;99.90;;;;;;5013288;28;20182;-66
2021/11/18 12:25:13;;;;;;;0.77;0.70;;;11.00;99.90;;;;;;5013732;28;20206;-67
2021/11/18 12:28:02;;;;;;;1.55;0.55;;;11.00;99.90;;;;;;5013897;28;20190;-68
2021/11/18 12:30:32;;;;;;;3.60;1.45;;;10.90;99.90;;;;;;4996531;28;20210;-67
2021/11/18 12:33:26;;;;;;;0.50;0.50;;;10.90;99.90;;;;;;5013724;28;20176;-65
2021/11/18 12:36:10;;;;;;;1.20;0.95;;;11.10;99.90;;;;;;5002562;28;20197;-66
2021/11/18 12:38:54;;;;;;;0.52;0.50;;;11.10;99.90;;;;;;5012911;28;20252;-68
2021/11/18 12:41:38;;;;;;;1.38;0.73;;;11.20;99.90;;;;;;5013475;28;20634;-66
2021/11/18 12:44:26;;;;;;;8.75;2.90;;;11.10;99.90;;;;;;4996524;28;20185;-66
2021/11/18 12:46:57;;;;;;;0.60;0.60;;;11.10;99.90;;;;;;4994320;28;20193;-66
2021/11/18 12:49:51;;;;;;;3.95;0.60;;;11.30;99.90;;;;;;4993324;28;20202;-67
2021/11/18 12:52:30;;;;;;;11.23;3.00;;;11.30;99.90;;;;;;4993671;28;20182;-67
2021/11/18 12:55:20;;;;;;;1.35;1.35;;;11.40;99.90;;;;;;4993446;28;20615;-67
2021/11/18 12:57:50;;;;;;;3.25;0.95;;;11.30;99.90;;;;;;4993376;28;20190;-67
2021/11/18 13:00:25;;;;;;;3.92;1.58;;;11.10;99.90;;;;;;4993260;28;20237;-65
2021/11/18 13:02:57;;;;;;;0.73;0.63;;;11.10;99.90;;;;;;4993239;28;20277;-67
2021/11/18 13:05:23;;;;;;;0.77;0.52;;;11.10;99.90;;;;;;4993686;28;20213;-67
2021/11/18 13:08:08;;;;;;;7.77;1.53;;;11.10;99.90;;;;;;4992979;28;20600;-65
2021/11/18 13:10:37;;;;;;;3.40;1.95;;;11.10;99.90;;;;;;4996994;28;20647;-65
2021/11/18 13:13:02;;;;;;;1.33;1.23;;;11.10;99.90;;;;;;4996785;28;20265;-65